sensor_id;sensor_type;location;lat;lon;timestamp;pressure;altitude;pressure_sealevel;temperature;humidity
23446;BME280;11895;48.738;9.320;2022-07-29T00:01:41;98567.97;;;21.09;100.00
23446;BME280;11895;48.738;9.320;2022-07-29T00:04:09;98568.72;;;21.30;100.00
23446;BME280;11895;48.738;9.320;2022-07-29T00:06:41;98569.69;;;21.29;100.00
23446;BME280;11895;48.738;9.320;2022-07-29T00:09:08;98561.63;;;21.28;100.00
23446;BME280;11895;48.738;9.320;2022-07-29T00:11:35;98557.44;;;20.95;100.00
23446;BME280;11895;48.738;9.320;2022-07-29T00:14:02;98552.41;;;21.10;100.00
23446;BME280;11895;48.738;9.320;2022-07-29T00:16:30;98547.78;;;21.29;100.00
23446;BME280;11895;48.738;9.320;2022-07-29T00:18:57;98547.63;;;21.21;100.00
23446;BME280;11895;48.738;9.320;2022-07-29T00:21:28;98551.22;;;21.22;100.00
23446;BME280;11895;48.738;9.320;2022-07-29T00:23:56;98553.53;;;20.97;100.00
23446;BME280;11895;48.738;9.320;2022-07-29T00:26:28;98545.47;;;21.15;100.00
23446;BME280;11895;48.738;9.320;2022-07-29T00:29:07;98543.78;;;21.34;100.00
23446;BME280;11895;48.738;9.320;2022-07-29T00:31:54;98541.13;;;21.42;100.00
23446;BME280;11895;48.738;9.320;2022-07-29T00:34:21;98547.19;;;21.55;100.00
23446;BME280;11895;48.738;9.320;2022-07-29T00:37:07;98546.63;;;21.42;100.00
23446;BME280;11895;48.738;9.320;2022-07-29T00:39:34;98540.84;;;21.45;100.00
23446;BME280;11895;48.738;9.320;2022-07-29T00:42:03;98549.66;;;21.39;100.00
23446;BME280;11895;48.738;9.320;2022-07-29T00:44:36;98542.16;;;21.41;100.00
23446;BME280;11895;48.738;9.320;2022-07-29T00:47:08;98547.34;;;21.44;100.00
23446;BME280;11895;48.738;9.320;2022-07-29T00:49:40;98549.22;;;21.04;100.00
23446;BME280;11895;48.738;9.320;2022-07-29T00:52:09;98544.19;;;21.10;100.00
23446;BME280;11895;48.738;9.320;2022-07-29T00:54:38;98539.09;;;20.66;100.00
23446;BME280;11895;48.738;9.320;2022-07-29T00:57:13;98539.94;;;20.57;100.00
23446;BME280;11895;48.738;9.320;2022-07-29T00:59:41;98532.47;;;20.78;100.00
23446;BME280;11895;48.738;9.320;2022-07-29T01:02:11;98536.97;;;20.79;100.00
23446;BME280;11895;48.738;9.320;2022-07-29T01:04:39;98534.78;;;20.93;100.00
23446;BME280;11895;48.738;9.320;2022-07-29T01:07:07;98529.31;;;20.83;100.00
23446;BME280;11895;48.738;9.320;2022-07-29T01:09:35;98526.88;;;20.70;100.00
23446;BME280;11895;48.738;9.320;2022-07-29T01:12:16;98522.38;;;20.69;100.00
23446;BME280;11895;48.738;9.320;2022-07-29T01:14:47;98520.13;;;20.74;100.00
23446;BME280;11895;48.738;9.320;2022-07-29T01:37:13;98510.91;;;20.95;100.00
23446;BME280;11895;48.738;9.320;2022-07-29T01:43:39;98509.00;;;20.66;100.00
23446;BME280;11895;48.738;9.320;2022-07-29T01:49:36;98508.00;;;20.87;100.00
23446;BME280;11895;48.738;9.320;2022-07-29T01:52:13;98512.91;;;20.93;100.00
23446;BME280;11895;48.738;9.320;2022-07-29T01:54:53;98513.47;;;20.87;100.00
23446;BME280;11895;48.738;9.320;2022-07-29T02:00:51;98518.94;;;20.77;100.00
23446;BME280;11895;48.738;9.320;2022-07-29T02:03:19;98515.63;;;20.73;100.00
23446;BME280;11895;48.738;9.320;2022-07-29T02:06:24;98514.16;;;20.69;100.00
23446;BME280;11895;48.738;9.320;2022-07-29T02:10:20;98507.97;;;20.48;100.00
23446;BME280;11895;48.738;9.320;2022-07-29T02:12:52;98508.75;;;20.29;100.00
23446;BME280;11895;48.738;9.320;2022-07-29T02:22:12;98503.81;;;20.13;100.00
23446;BME280;11895;48.738;9.320;2022-07-29T02:24:41;98497.47;;;20.03;100.00
23446;BME280;11895;48.738;9.320;2022-07-29T02:27:11;98499.44;;;20.01;100.00
23446;BME280;11895;48.738;9.320;2022-07-29T02:29:39;98498.09;;;20.16;100.00
23446;BME280;11895;48.738;9.320;2022-07-29T02:32:08;98508.50;;;20.42;98.07
23446;BME280;11895;48.738;9.320;2022-07-29T02:34:38;98498.47;;;20.52;93.81
23446;BME280;11895;48.738;9.320;2022-07-29T02:37:05;98500.78;;;20.66;94.76
23446;BME280;11895;48.738;9.320;2022-07-29T02:39:39;98497.03;;;20.67;89.13
23446;BME280;11895;48.738;9.320;2022-07-29T02:42:11;98499.78;;;20.77;82.37
23446;BME280;11895;48.738;9.320;2022-07-29T02:44:39;98496.91;;;20.78;77.83
23446;BME280;11895;48.738;9.320;2022-07-29T02:52:41;98491.84;;;21.03;84.63
23446;BME280;11895;48.738;9.320;2022-07-29T02:55:18;98487.81;;;20.88;88.98
23446;BME280;11895;48.738;9.320;2022-07-29T02:58:24;98494.59;;;20.84;82.50
23446;BME280;11895;48.738;9.320;2022-07-29T03:00:59;98506.88;;;20.79;84.11
23446;BME280;11895;48.738;9.320;2022-07-29T03:03:34;98501.22;;;20.91;82.22
23446;BME280;11895;48.738;9.320;2022-07-29T03:06:04;98490.72;;;20.76;71.94
23446;BME280;11895;48.738;9.320;2022-07-29T03:08:34;98497.63;;;20.81;74.35
23446;BME280;11895;48.738;9.320;2022-07-29T03:11:02;98498.50;;;20.91;73.90
23446;BME280;11895;48.738;9.320;2022-07-29T03:13:34;98505.09;;;20.88;85.70
23446;BME280;11895;48.738;9.320;2022-07-29T03:16:05;98503.09;;;20.81;79.77
23446;BME280;11895;48.738;9.320;2022-07-29T03:18:33;98501.81;;;20.75;87.04
23446;BME280;11895;48.738;9.320;2022-07-29T03:21:03;98508.84;;;20.58;84.22
23446;BME280;11895;48.738;9.320;2022-07-29T03:23:30;98502.72;;;20.45;88.58
23446;BME280;11895;48.738;9.320;2022-07-29T03:26:02;98503.75;;;20.44;86.35
23446;BME280;11895;48.738;9.320;2022-07-29T03:28:29;98505.06;;;20.49;65.59
23446;BME280;11895;48.738;9.320;2022-07-29T03:30:57;98500.78;;;20.47;70.40
23446;BME280;11895;48.738;9.320;2022-07-29T03:33:24;98500.00;;;20.45;88.13
23446;BME280;11895;48.738;9.320;2022-07-29T03:35:52;98500.78;;;20.47;89.87
23446;BME280;11895;48.738;9.320;2022-07-29T03:38:19;98498.97;;;20.26;91.57
23446;BME280;11895;48.738;9.320;2022-07-29T03:40:55;98502.28;;;20.40;89.32
23446;BME280;11895;48.738;9.320;2022-07-29T03:43:26;98503.09;;;20.51;88.27
23446;BME280;11895;48.738;9.320;2022-07-29T03:45:57;98502.84;;;20.34;90.19
23446;BME280;11895;48.738;9.320;2022-07-29T03:48:26;98501.72;;;20.26;91.55
23446;BME280;11895;48.738;9.320;2022-07-29T03:50:56;98503.44;;;20.27;88.37
23446;BME280;11895;48.738;9.320;2022-07-29T03:53:24;98510.50;;;20.40;76.08
23446;BME280;11895;48.738;9.320;2022-07-29T03:55:55;98513.81;;;20.34;88.71
23446;BME280;11895;48.738;9.320;2022-07-29T03:58:26;98513.34;;;20.28;86.50
23446;BME280;11895;48.738;9.320;2022-07-29T04:00:58;98515.97;;;20.40;85.45
23446;BME280;11895;48.738;9.320;2022-07-29T04:03:25;98514.59;;;20.15;92.00
23446;BME280;11895;48.738;9.320;2022-07-29T04:06:04;98513.34;;;19.79;94.53
23446;BME280;11895;48.738;9.320;2022-07-29T04:08:33;98513.03;;;20.12;86.12
23446;BME280;11895;48.738;9.320;2022-07-29T04:11:01;98524.03;;;20.32;88.85
23446;BME280;11895;48.738;9.320;2022-07-29T04:13:29;98522.19;;;20.42;86.15
23446;BME280;11895;48.738;9.320;2022-07-29T04:15:59;98528.41;;;20.53;84.71
23446;BME280;11895;48.738;9.320;2022-07-29T04:18:27;98526.91;;;20.40;89.40
23446;BME280;11895;48.738;9.320;2022-07-29T04:20:54;98532.81;;;20.45;89.37
23446;BME280;11895;48.738;9.320;2022-07-29T04:23:25;98527.81;;;20.50;87.21
23446;BME280;11895;48.738;9.320;2022-07-29T04:25:53;98531.03;;;20.55;87.06
23446;BME280;11895;48.738;9.320;2022-07-29T04:28:20;98543.69;;;20.56;84.98
23446;BME280;11895;48.738;9.320;2022-07-29T04:30:47;98545.59;;;20.65;82.94
23446;BME280;11895;48.738;9.320;2022-07-29T04:33:18;98538.97;;;20.77;80.12
23446;BME280;11895;48.738;9.320;2022-07-29T04:35:53;98538.53;;;20.72;85.62
23446;BME280;11895;48.738;9.320;2022-07-29T04:38:21;98539.81;;;20.68;87.22
23446;BME280;11895;48.738;9.320;2022-07-29T04:40:48;98530.59;;;20.69;88.17
23446;BME280;11895;48.738;9.320;2022-07-29T04:43:15;98532.75;;;20.56;89.59
23446;BME280;11895;48.738;9.320;2022-07-29T04:45:49;98531.59;;;20.68;82.78
23446;BME280;11895;48.738;9.320;2022-07-29T04:48:16;98533.63;;;20.57;87.70
23446;BME280;11895;48.738;9.320;2022-07-29T04:50:43;98538.50;;;20.53;89.57
23446;BME280;11895;48.738;9.320;2022-07-29T04:53:10;98529.28;;;20.64;87.59
23446;BME280;11895;48.738;9.320;2022-07-29T04:55:37;98533.94;;;20.83;86.84
23446;BME280;11895;48.738;9.320;2022-07-29T04:58:07;98541.72;;;20.77;87.66
23446;BME280;11895;48.738;9.320;2022-07-29T05:00:35;98538.84;;;20.89;81.80
23446;BME280;11895;48.738;9.320;2022-07-29T05:03:02;98541.59;;;20.89;86.24
23446;BME280;11895;48.738;9.320;2022-07-29T05:05:30;98549.34;;;20.93;87.12
23446;BME280;11895;48.738;9.320;2022-07-29T05:07:58;98551.81;;;21.16;85.55
23446;BME280;11895;48.738;9.320;2022-07-29T05:10:25;98548.78;;;21.28;80.93
23446;BME280;11895;48.738;9.320;2022-07-29T05:12:52;98544.47;;;21.07;87.21
23446;BME280;11895;48.738;9.320;2022-07-29T05:15:19;98549.94;;;21.16;86.44
23446;BME280;11895;48.738;9.320;2022-07-29T05:17:47;98544.31;;;21.27;86.34
23446;BME280;11895;48.738;9.320;2022-07-29T05:20:16;98552.66;;;21.55;83.89
23446;BME280;11895;48.738;9.320;2022-07-29T05:22:45;98552.66;;;21.55;81.01
23446;BME280;11895;48.738;9.320;2022-07-29T05:25:13;98552.41;;;21.39;84.38
23446;BME280;11895;48.738;9.320;2022-07-29T05:27:46;98553.84;;;21.52;84.46
23446;BME280;11895;48.738;9.320;2022-07-29T05:30:17;98552.63;;;21.74;84.19
23446;BME280;11895;48.738;9.320;2022-07-29T05:32:44;98553.84;;;21.43;84.15
23446;BME280;11895;48.738;9.320;2022-07-29T05:35:13;98552.84;;;21.34;85.34
23446;BME280;11895;48.738;9.320;2022-07-29T05:37:41;98556.44;;;21.54;83.41
23446;BME280;11895;48.738;9.320;2022-07-29T05:40:08;98559.97;;;21.84;81.42
23446;BME280;11895;48.738;9.320;2022-07-29T05:42:36;98553.59;;;21.93;83.21
23446;BME280;11895;48.738;9.320;2022-07-29T05:45:04;98565.66;;;22.00;82.85
23446;BME280;11895;48.738;9.320;2022-07-29T05:47:32;98559.16;;;22.20;82.02
23446;BME280;11895;48.738;9.320;2022-07-29T05:50:00;98567.28;;;21.93;82.66
23446;BME280;11895;48.738;9.320;2022-07-29T05:52:27;98573.59;;;22.03;81.75
23446;BME280;11895;48.738;9.320;2022-07-29T05:54:55;98573.66;;;21.84;82.71
23446;BME280;11895;48.738;9.320;2022-07-29T05:57:23;98565.38;;;22.03;80.66
23446;BME280;11895;48.738;9.320;2022-07-29T05:59:51;98565.13;;;22.33;78.74
23446;BME280;11895;48.738;9.320;2022-07-29T06:02:18;98576.63;;;22.00;80.64
23446;BME280;11895;48.738;9.320;2022-07-29T06:04:45;98580.78;;;22.23;80.06
23446;BME280;11895;48.738;9.320;2022-07-29T06:07:13;98581.97;;;22.21;82.25
23446;BME280;11895;48.738;9.320;2022-07-29T06:09:40;98573.31;;;22.06;83.25
23446;BME280;11895;48.738;9.320;2022-07-29T06:12:07;98576.63;;;22.47;81.42
23446;BME280;11895;48.738;9.320;2022-07-29T06:14:35;98572.66;;;22.31;82.46
23446;BME280;11895;48.738;9.320;2022-07-29T06:17:02;98573.81;;;22.39;81.66
23446;BME280;11895;48.738;9.320;2022-07-29T06:19:30;98571.94;;;22.57;81.00
23446;BME280;11895;48.738;9.320;2022-07-29T06:21:57;98576.63;;;22.47;80.36
23446;BME280;11895;48.738;9.320;2022-07-29T06:24:24;98577.44;;;22.57;80.67
23446;BME280;11895;48.738;9.320;2022-07-29T06:26:57;98576.91;;;22.99;78.38
23446;BME280;11895;48.738;9.320;2022-07-29T06:29:24;98579.13;;;23.13;77.32
23446;BME280;11895;48.738;9.320;2022-07-29T06:31:51;98580.38;;;23.37;74.95
23446;BME280;11895;48.738;9.320;2022-07-29T06:34:18;98582.94;;;23.56;74.73
23446;BME280;11895;48.738;9.320;2022-07-29T06:36:46;98583.72;;;23.84;74.40
23446;BME280;11895;48.738;9.320;2022-07-29T06:39:14;98590.00;;;23.76;74.03
23446;BME280;11895;48.738;9.320;2022-07-29T06:41:41;98588.75;;;23.89;73.77
23446;BME280;11895;48.738;9.320;2022-07-29T06:44:12;98595.03;;;24.33;73.55
23446;BME280;11895;48.738;9.320;2022-07-29T06:46:41;98594.13;;;24.58;70.76
23446;BME280;11895;48.738;9.320;2022-07-29T06:49:08;98596.72;;;24.60;69.97
23446;BME280;11895;48.738;9.320;2022-07-29T06:51:35;98591.81;;;24.38;71.76
23446;BME280;11895;48.738;9.320;2022-07-29T06:54:07;98595.03;;;24.67;70.14
23446;BME280;11895;48.738;9.320;2022-07-29T06:56:35;98596.66;;;24.94;68.83
23446;BME280;11895;48.738;9.320;2022-07-29T06:59:07;98601.41;;;25.10;68.79
23446;BME280;11895;48.738;9.320;2022-07-29T07:01:42;98589.00;;;25.14;66.48
23446;BME280;11895;48.738;9.320;2022-07-29T07:04:10;98595.84;;;25.02;66.80
23446;BME280;11895;48.738;9.320;2022-07-29T07:06:38;98597.66;;;25.35;66.76
23446;BME280;11895;48.738;9.320;2022-07-29T07:09:05;98594.34;;;25.24;65.84
23446;BME280;11895;48.738;9.320;2022-07-29T07:11:33;98598.66;;;25.26;67.04
23446;BME280;11895;48.738;9.320;2022-07-29T07:14:00;98596.59;;;25.28;66.78
23446;BME280;11895;48.738;9.320;2022-07-29T07:16:31;98595.19;;;25.08;67.14
23446;BME280;11895;48.738;9.320;2022-07-29T07:18:59;98609.06;;;25.49;64.56
23446;BME280;11895;48.738;9.320;2022-07-29T07:21:27;98603.84;;;25.29;65.60
23446;BME280;11895;48.738;9.320;2022-07-29T07:23:56;98605.41;;;25.32;66.42
23446;BME280;11895;48.738;9.320;2022-07-29T07:26:23;98603.53;;;25.81;63.83
23446;BME280;11895;48.738;9.320;2022-07-29T07:28:50;98610.06;;;26.05;63.52
23446;BME280;11895;48.738;9.320;2022-07-29T07:31:18;98612.31;;;26.18;61.79
23446;BME280;11895;48.738;9.320;2022-07-29T07:33:45;98622.81;;;25.57;64.56
23446;BME280;11895;48.738;9.320;2022-07-29T07:36:12;98622.13;;;25.71;64.00
23446;BME280;11895;48.738;9.320;2022-07-29T07:38:39;98627.69;;;25.79;63.59
23446;BME280;11895;48.738;9.320;2022-07-29T07:41:09;98621.47;;;25.85;63.82
23446;BME280;11895;48.738;9.320;2022-07-29T07:43:45;98624.59;;;25.99;63.39
23446;BME280;11895;48.738;9.320;2022-07-29T07:46:15;98622.84;;;26.06;62.32
23446;BME280;11895;48.738;9.320;2022-07-29T07:48:43;98619.38;;;26.20;62.35
23446;BME280;11895;48.738;9.320;2022-07-29T07:51:10;98611.31;;;25.86;62.65
23446;BME280;11895;48.738;9.320;2022-07-29T07:53:38;98629.41;;;26.13;62.34
23446;BME280;11895;48.738;9.320;2022-07-29T07:56:05;98622.81;;;26.22;61.86
23446;BME280;11895;48.738;9.320;2022-07-29T07:58:38;98617.41;;;26.53;60.86
23446;BME280;11895;48.738;9.320;2022-07-29T08:01:11;98606.47;;;26.68;59.76
23446;BME280;11895;48.738;9.320;2022-07-29T08:03:38;98612.44;;;26.88;58.65
23446;BME280;11895;48.738;9.320;2022-07-29T08:06:08;98620.78;;;26.08;61.81
23446;BME280;11895;48.738;9.320;2022-07-29T08:08:35;98621.78;;;26.31;61.84
23446;BME280;11895;48.738;9.320;2022-07-29T08:11:02;98619.31;;;26.53;61.05
23446;BME280;11895;48.738;9.320;2022-07-29T08:13:36;98621.72;;;26.56;59.80
23446;BME280;11895;48.738;9.320;2022-07-29T08:16:06;98614.31;;;26.96;59.16
23446;BME280;11895;48.738;9.320;2022-07-29T08:18:43;98611.97;;;27.07;59.34
23446;BME280;11895;48.738;9.320;2022-07-29T08:21:15;98608.16;;;27.16;58.27
23446;BME280;11895;48.738;9.320;2022-07-29T08:23:45;98619.63;;;27.05;58.36
23446;BME280;11895;48.738;9.320;2022-07-29T08:26:24;98612.53;;;27.03;58.28
23446;BME280;11895;48.738;9.320;2022-07-29T08:28:51;98621.88;;;27.10;58.52
23446;BME280;11895;48.738;9.320;2022-07-29T08:31:19;98616.13;;;27.42;57.62
23446;BME280;11895;48.738;9.320;2022-07-29T08:33:46;98611.91;;;27.78;56.10
23446;BME280;11895;48.738;9.320;2022-07-29T08:36:16;98612.94;;;28.00;55.91
23446;BME280;11895;48.738;9.320;2022-07-29T08:38:43;98615.47;;;28.24;55.17
23446;BME280;11895;48.738;9.320;2022-07-29T08:41:10;98616.13;;;28.26;56.14
23446;BME280;11895;48.738;9.320;2022-07-29T08:43:39;98610.53;;;28.64;54.32
23446;BME280;11895;48.738;9.320;2022-07-29T08:46:07;98617.22;;;28.55;53.81
23446;BME280;11895;48.738;9.320;2022-07-29T08:48:36;98611.59;;;28.78;53.69
23446;BME280;11895;48.738;9.320;2022-07-29T08:51:03;98608.50;;;28.87;53.30
23446;BME280;11895;48.738;9.320;2022-07-29T08:53:32;98607.38;;;28.97;52.55
23446;BME280;11895;48.738;9.320;2022-07-29T08:56:03;98610.16;;;28.97;52.22
23446;BME280;11895;48.738;9.320;2022-07-29T08:58:32;98605.63;;;28.81;53.23
23446;BME280;11895;48.738;9.320;2022-07-29T09:01:03;98599.66;;;28.77;52.37
23446;BME280;11895;48.738;9.320;2022-07-29T09:03:39;98605.16;;;28.62;52.88
23446;BME280;11895;48.738;9.320;2022-07-29T09:06:13;98612.94;;;27.54;54.53
23446;BME280;11895;48.738;9.320;2022-07-29T09:08:41;98611.91;;;28.15;53.47
23446;BME280;11895;48.738;9.320;2022-07-29T09:11:09;98615.47;;;28.24;53.43
23446;BME280;11895;48.738;9.320;2022-07-29T09:13:38;98614.94;;;28.43;50.59
23446;BME280;11895;48.738;9.320;2022-07-29T09:16:10;98619.91;;;28.63;49.97
23446;BME280;11895;48.738;9.320;2022-07-29T09:18:40;98615.41;;;28.62;51.12
23446;BME280;11895;48.738;9.320;2022-07-29T09:21:15;98623.09;;;28.22;50.31
23446;BME280;11895;48.738;9.320;2022-07-29T09:24:10;98623.91;;;28.75;49.98
23446;BME280;11895;48.738;9.320;2022-07-29T09:26:44;98613.06;;;29.10;48.97
23446;BME280;11895;48.738;9.320;2022-07-29T09:29:14;98613.25;;;29.23;50.20
23446;BME280;11895;48.738;9.320;2022-07-29T09:31:45;98619.06;;;29.64;48.41
23446;BME280;11895;48.738;9.320;2022-07-29T09:34:20;98617.97;;;30.08;47.38
23446;BME280;11895;48.738;9.320;2022-07-29T09:36:50;98618.81;;;30.30;46.27
23446;BME280;11895;48.738;9.320;2022-07-29T09:39:28;98611.31;;;30.59;46.12
23446;BME280;11895;48.738;9.320;2022-07-29T09:42:04;98608.72;;;30.85;45.65
23446;BME280;11895;48.738;9.320;2022-07-29T09:44:49;98603.91;;;31.14;44.26
23446;BME280;11895;48.738;9.320;2022-07-29T09:47:18;98603.81;;;31.42;43.72
23446;BME280;11895;48.738;9.320;2022-07-29T09:50:01;98596.34;;;31.56;44.14
23446;BME280;11895;48.738;9.320;2022-07-29T09:52:31;98594.16;;;31.31;44.75
23446;BME280;11895;48.738;9.320;2022-07-29T09:55:06;98581.34;;;31.57;43.88
23446;BME280;11895;48.738;9.320;2022-07-29T09:57:34;98591.50;;;31.10;44.47
23446;BME280;11895;48.738;9.320;2022-07-29T10:00:11;98591.72;;;31.15;44.07
23446;BME280;11895;48.738;9.320;2022-07-29T10:02:46;98589.25;;;31.46;44.22
23446;BME280;11895;48.738;9.320;2022-07-29T10:05:24;98586.72;;;31.65;43.06
23446;BME280;11895;48.738;9.320;2022-07-29T10:08:02;98588.28;;;31.87;42.35
23446;BME280;11895;48.738;9.320;2022-07-29T10:10:34;98585.94;;;32.37;41.43
23446;BME280;11895;48.738;9.320;2022-07-29T10:13:13;98592.34;;;32.44;40.79
23446;BME280;11895;48.738;9.320;2022-07-29T10:15:45;98589.13;;;32.14;41.34
23446;BME280;11895;48.738;9.320;2022-07-29T10:18:14;98589.97;;;32.55;40.25
23446;BME280;11895;48.738;9.320;2022-07-29T10:20:55;98585.63;;;30.91;42.23
23446;BME280;11895;48.738;9.320;2022-07-29T10:23:23;98582.59;;;31.34;42.60
23446;BME280;11895;48.738;9.320;2022-07-29T10:25:50;98581.44;;;32.36;41.70
23446;BME280;11895;48.738;9.320;2022-07-29T10:28:20;98577.94;;;32.61;40.18
23446;BME280;11895;48.738;9.320;2022-07-29T10:30:50;98567.41;;;33.66;38.95
23446;BME280;11895;48.738;9.320;2022-07-29T10:46:20;98552.63;;;31.36;41.52
23446;BME280;11895;48.738;9.320;2022-07-29T10:55:40;98550.22;;;30.03;43.64
23446;BME280;11895;48.738;9.320;2022-07-29T11:05:09;98562.91;;;29.90;44.23
23446;BME280;11895;48.738;9.320;2022-07-29T11:14:59;98554.16;;;30.50;44.29
23446;BME280;11895;48.738;9.320;2022-07-29T11:17:28;98551.13;;;30.38;44.01
23446;BME280;11895;48.738;9.320;2022-07-29T11:27:19;98610.13;;;28.52;46.77
23446;BME280;11895;48.738;9.320;2022-07-29T11:30:12;98658.31;;;26.66;71.50
23446;BME280;11895;48.738;9.320;2022-07-29T11:32:42;98694.59;;;20.31;100.00
23446;BME280;11895;48.738;9.320;2022-07-29T11:35:19;98727.94;;;18.51;100.00
23446;BME280;11895;48.738;9.320;2022-07-29T11:43:50;98601.75;;;17.82;100.00
23446;BME280;11895;48.738;9.320;2022-07-29T11:49:20;98653.09;;;19.42;100.00
23446;BME280;11895;48.738;9.320;2022-07-29T11:52:09;98668.06;;;19.26;100.00
23446;BME280;11895;48.738;9.320;2022-07-29T11:54:39;98663.72;;;18.92;100.00
23446;BME280;11895;48.738;9.320;2022-07-29T11:57:27;98670.47;;;19.20;100.00
23446;BME280;11895;48.738;9.320;2022-07-29T12:00:06;98668.81;;;19.82;100.00
23446;BME280;11895;48.738;9.320;2022-07-29T12:02:39;98672.88;;;21.00;100.00
23446;BME280;11895;48.738;9.320;2022-07-29T12:05:09;98669.16;;;21.20;100.00
23446;BME280;11895;48.738;9.320;2022-07-29T12:08:20;98669.16;;;21.20;100.00
23446;BME280;11895;48.738;9.320;2022-07-29T12:10:49;98655.88;;;21.06;100.00
23446;BME280;11895;48.738;9.320;2022-07-29T12:13:38;98655.88;;;21.06;100.00
23446;BME280;11895;48.738;9.320;2022-07-29T12:17:07;59048.13;;;-144.85;100.00
23446;BME280;11895;48.738;9.320;2022-07-29T12:20:59;59048.13;;;-144.85;100.00
23446;BME280;11895;48.738;9.320;2022-07-29T12:24:48;59048.13;;;-144.85;100.00
23446;BME280;11895;48.738;9.320;2022-07-29T12:28:21;59048.13;;;-144.85;100.00
23446;BME280;11895;48.738;9.320;2022-07-29T12:30:54;98638.34;;;21.76;100.00
23446;BME280;11895;48.738;9.320;2022-07-29T12:33:27;98641.63;;;21.80;100.00
23446;BME280;11895;48.738;9.320;2022-07-29T12:36:01;98638.31;;;21.96;100.00
23446;BME280;11895;48.738;9.320;2022-07-29T12:38:34;98636.31;;;21.78;100.00
23446;BME280;11895;48.738;9.320;2022-07-29T12:41:03;98649.00;;;21.60;100.00
23446;BME280;11895;48.738;9.320;2022-07-29T12:43:34;98642.69;;;21.60;100.00
23446;BME280;11895;48.738;9.320;2022-07-29T12:46:12;98639.22;;;21.77;100.00
23446;BME280;11895;48.738;9.320;2022-07-29T12:48:42;98647.81;;;22.01;100.00
23446;BME280;11895;48.738;9.320;2022-07-29T12:51:13;98639.66;;;22.39;100.00
23446;BME280;11895;48.738;9.320;2022-07-29T12:54:01;98644.19;;;22.57;100.00
23446;BME280;11895;48.738;9.320;2022-07-29T12:56:32;98621.50;;;22.93;100.00
23446;BME280;11895;48.738;9.320;2022-07-29T12:59:11;98631.56;;;23.38;100.00
23446;BME280;11895;48.738;9.320;2022-07-29T13:01:40;98631.25;;;23.23;97.52
23446;BME280;11895;48.738;9.320;2022-07-29T13:04:11;98630.78;;;23.63;95.47
23446;BME280;11895;48.738;9.320;2022-07-29T13:27:48;98660.03;;;24.52;86.79
23446;BME280;11895;48.738;9.320;2022-07-29T13:39:41;98667.66;;;25.51;85.29
23446;BME280;11895;48.738;9.320;2022-07-29T13:45:30;98654.22;;;25.64;85.23
23446;BME280;11895;48.738;9.320;2022-07-29T13:54:10;98649.09;;;26.02;86.60
23446;BME280;11895;48.738;9.320;2022-07-29T13:56:39;98650.59;;;26.45;85.75
23446;BME280;11895;48.738;9.320;2022-07-29T13:59:07;98651.09;;;26.49;81.28
23446;BME280;11895;48.738;9.320;2022-07-29T14:04:43;98634.19;;;26.52;82.44
23446;BME280;11895;48.738;9.320;2022-07-29T14:07:13;98615.16;;;26.57;85.44
23446;BME280;11895;48.738;9.320;2022-07-29T14:09:42;98607.22;;;27.32;86.49
23446;BME280;11895;48.738;9.320;2022-07-29T14:12:13;98609.69;;;27.27;82.83
23446;BME280;11895;48.738;9.320;2022-07-29T14:14:43;98602.31;;;27.42;80.20
23446;BME280;11895;48.738;9.320;2022-07-29T14:17:14;98600.69;;;26.38;82.62
23446;BME280;11895;48.738;9.320;2022-07-29T14:19:42;98610.22;;;26.83;83.96
23446;BME280;11895;48.738;9.320;2022-07-29T14:22:10;98606.38;;;26.92;81.97
23446;BME280;11895;48.738;9.320;2022-07-29T14:24:38;98614.19;;;27.74;80.39
23446;BME280;11895;48.738;9.320;2022-07-29T14:27:07;98605.28;;;27.56;80.07
23446;BME280;11895;48.738;9.320;2022-07-29T14:29:35;98612.47;;;27.73;79.42
23446;BME280;11895;48.738;9.320;2022-07-29T14:32:05;98618.00;;;28.11;79.46
23446;BME280;11895;48.738;9.320;2022-07-29T14:34:37;98618.06;;;28.03;76.38
23446;BME280;11895;48.738;9.320;2022-07-29T14:37:05;98621.13;;;27.16;77.33
23446;BME280;11895;48.738;9.320;2022-07-29T14:39:36;98619.91;;;27.19;76.44
23446;BME280;11895;48.738;9.320;2022-07-29T14:42:10;98622.38;;;27.36;79.05
23446;BME280;11895;48.738;9.320;2022-07-29T14:44:42;98615.03;;;27.52;79.21
23446;BME280;11895;48.738;9.320;2022-07-29T14:47:11;98614.19;;;27.51;75.72
23446;BME280;11895;48.738;9.320;2022-07-29T14:49:38;98619.00;;;27.80;79.14
23446;BME280;11895;48.738;9.320;2022-07-29T14:52:06;98624.50;;;28.18;78.87
23446;BME280;11895;48.738;9.320;2022-07-29T14:54:36;98632.16;;;28.31;79.04
23446;BME280;11895;48.738;9.320;2022-07-29T14:57:04;98629.97;;;28.26;76.12
23446;BME280;11895;48.738;9.320;2022-07-29T14:59:34;98631.44;;;27.99;75.47
23446;BME280;11895;48.738;9.320;2022-07-29T15:02:01;98622.72;;;27.87;76.52
23446;BME280;11895;48.738;9.320;2022-07-29T15:04:30;98629.63;;;27.91;77.99
23446;BME280;11895;48.738;9.320;2022-07-29T15:06:57;98633.72;;;27.50;79.00
23446;BME280;11895;48.738;9.320;2022-07-29T15:09:25;98630.53;;;27.61;78.64
23446;BME280;11895;48.738;9.320;2022-07-29T15:11:55;98633.34;;;27.99;77.12
23446;BME280;11895;48.738;9.320;2022-07-29T15:14:23;98634.63;;;28.11;78.77
23446;BME280;11895;48.738;9.320;2022-07-29T15:16:50;98639.97;;;27.44;75.12
23446;BME280;11895;48.738;9.320;2022-07-29T15:19:19;98628.06;;;27.66;77.79
23446;BME280;11895;48.738;9.320;2022-07-29T15:21:47;98631.84;;;27.65;75.95
23446;BME280;11895;48.738;9.320;2022-07-29T15:24:18;98631.84;;;28.11;76.78
23446;BME280;11895;48.738;9.320;2022-07-29T15:26:46;98629.13;;;27.88;77.11
23446;BME280;11895;48.738;9.320;2022-07-29T15:29:15;98632.44;;;27.83;76.51
23446;BME280;11895;48.738;9.320;2022-07-29T15:31:45;98633.59;;;27.66;78.62
23446;BME280;11895;48.738;9.320;2022-07-29T15:34:16;98629.09;;;28.11;78.12
23446;BME280;11895;48.738;9.320;2022-07-29T15:36:43;98632.09;;;28.24;76.15
23446;BME280;11895;48.738;9.320;2022-07-29T15:39:20;98637.84;;;28.67;76.88